Due to severe server failure at the provider, not all demo sites are operational. Will take some days to rebuilt everything.

Demonstration site - Click on the  for more information

This is an optional block. Switch it on/off in your settings-file: $SITE['bannerTop'] = false; or $SITE['bannerBottom'] = false;

You can display ads, any other important text or photo’s using text / html or PHP code.

You can place one or more at the top and or bottom and it can all be different for content / size .



Visit our other weather sites:

Template documentation
and downloads

And another site



Nearby METAR Reports

   
EBAW - Antwerp
Updated: 26-05-2019 08:50
Few Clouds  
Few Clouds  
   Wind: SW 16.7 km/h
Wind: SW 16.7 km/h
Temperature: 13°C
Dew Point: 11°C
Humidity: 88%
Barometer: 1015 hPa
Clouds: Few Clouds
Visibility: More than 10 km
Cloud details: Few Clouds 1000 ft
EBAW 260650Z 22009KT 9999 FEW010 13/11 Q1015 NOSIG
EBLG - Liège
Updated: 26-05-2019 08:50
Clear  
Clear  
   Wind: SSW 16.7 km/h
Wind: SSW 16.7 km/h
Temperature: 14°C
Dew Point: 9°C
Humidity: 72%
Barometer: 1016 hPa
Visibility: More than 10 km
Cloud details: Clear ft
EBLG 260650Z 20009KT CAVOK 14/09 Q1016 NOSIG
EBCV - Mons/Bergen
Updated: 26-05-2019 08:55
Mostly Cloudy  
Mostly Cloudy  
   Wind: SW 20.4 km/h
Wind: SW 20.4 km/h
Temperature: 13°C
Dew Point: 12°C
Humidity: 94%
Barometer: 1016 hPa
Clouds: Mostly Cloudy
Visibility: 9 km
Cloud details: Mostly Cloudy 600 ft
EBCV 260655Z AUTO 22011KT 9000 BKN006/// 13/12 Q1016 YLO
EHBK - Maastricht
Updated: 26-05-2019 08:55
Partly Cloudy  
Partly Cloudy  
   Wind: SSW 20.4 km/h
Wind: SSW 20.4 km/h
Temperature: 14°C
Dew Point: 10°C
Humidity: 77%
Barometer: 1015 hPa
Clouds: Partly Cloudy
Visibility: More than 10 km
Cloud details: Partly Cloudy ft
EHBK 260655Z AUTO 21011KT 9999 NSC 14/10 Q1015 BECMG 8000
ELLX - Luxemburg
Updated: 26-05-2019 08:50
Partly Cloudy  
Partly Cloudy  
   Wind: WSW 9.3 km/h
Wind: WSW 9.3 km/h
Temperature: 13°C
Dew Point: 9°C
Humidity: 77%
Barometer: 1018 hPa
Clouds: Partly Cloudy
Visibility: 8 km
Cloud details: Partly Cloudy ft
ELLX 260650Z 24005KT 8000 NSC 13/09 Q1018 NOSIG
EBOS - Oostende
Updated: 26-05-2019 08:50
Clear  
Clear  
   Wind: SW 20.4 km/h
Wind: SW 20.4 km/h
Temperature: 16°C
Dew Point: 12°C
Humidity: 77%
Barometer: 1015 hPa
Visibility: More than 10 km
Cloud details: Clear ft
EBOS 260650Z 23011KT CAVOK 16/12 Q1015 NOSIG

Script developed by  Saratoga-weather.org Adapted for the template by  Weerstation Leuven

This is an optional block. Switch it on/off in your settings-file: $SITE['bannerTop'] = false; or $SITE['bannerBottom'] = false;

You can display ads, any other important text or photo’s using text / html or PHP code.

You can place one or more at the top and or bottom and it can all be different for content / size .